sensor_id;sensor_type;location;lat;lon;timestamp;P1;durP1;ratioP1;P2;durP2;ratioP2
48263;SDS011;34086;51.076;13.722;2023-01-28T00:00:40;19.83;;;13.77;;
48263;SDS011;34086;51.076;13.722;2023-01-28T00:01:40;20.42;;;14.30;;
48263;SDS011;34086;51.076;13.722;2023-01-28T00:02:41;21.75;;;14.20;;
48263;SDS011;34086;51.076;13.722;2023-01-28T00:03:41;23.00;;;15.60;;
48263;SDS011;34086;51.076;13.722;2023-01-28T00:04:42;22.73;;;14.73;;
48263;SDS011;34086;51.076;13.722;2023-01-28T00:05:43;21.77;;;14.13;;
48263;SDS011;34086;51.076;13.722;2023-01-28T00:06:44;20.45;;;14.25;;
48263;SDS011;34086;51.076;13.722;2023-01-28T00:07:47;21.10;;;14.10;;
48263;SDS011;34086;51.076;13.722;2023-01-28T00:08:48;22.25;;;14.82;;
48263;SDS011;34086;51.076;13.722;2023-01-28T00:09:49;21.00;;;14.30;;
48263;SDS011;34086;51.076;13.722;2023-01-28T00:10:50;20.98;;;14.10;;
48263;SDS011;34086;51.076;13.722;2023-01-28T00:11:50;23.27;;;15.95;;
48263;SDS011;34086;51.076;13.722;2023-01-28T00:12:51;20.52;;;14.07;;
48263;SDS011;34086;51.076;13.722;2023-01-28T00:13:52;20.42;;;14.13;;
48263;SDS011;34086;51.076;13.722;2023-01-28T00:14:53;23.60;;;14.80;;
48263;SDS011;34086;51.076;13.722;2023-01-28T00:15:57;19.75;;;13.38;;
48263;SDS011;34086;51.076;13.722;2023-01-28T00:16:59;20.02;;;13.38;;
48263;SDS011;34086;51.076;13.722;2023-01-28T00:18:00;18.25;;;12.85;;
48263;SDS011;34086;51.076;13.722;2023-01-28T00:19:01;19.55;;;13.05;;
48263;SDS011;34086;51.076;13.722;2023-01-28T00:20:02;20.42;;;13.20;;
48263;SDS011;34086;51.076;13.722;2023-01-28T00:21:07;21.48;;;13.60;;
48263;SDS011;34086;51.076;13.722;2023-01-28T00:22:13;19.60;;;12.93;;
48263;SDS011;34086;51.076;13.722;2023-01-28T00:23:19;19.00;;;13.15;;
48263;SDS011;34086;51.076;13.722;2023-01-28T00:24:19;18.15;;;12.13;;
48263;SDS011;34086;51.076;13.722;2023-01-28T00:25:20;19.52;;;13.35;;
48263;SDS011;34086;51.076;13.722;2023-01-28T00:26:23;19.70;;;12.88;;
48263;SDS011;34086;51.076;13.722;2023-01-28T00:27:27;19.58;;;13.23;;
48263;SDS011;34086;51.076;13.722;2023-01-28T00:28:30;18.42;;;13.35;;
48263;SDS011;34086;51.076;13.722;2023-01-28T00:29:31;20.55;;;12.85;;
48263;SDS011;34086;51.076;13.722;2023-01-28T00:30:32;20.85;;;13.40;;
48263;SDS011;34086;51.076;13.722;2023-01-28T00:31:32;18.83;;;12.63;;
48263;SDS011;34086;51.076;13.722;2023-01-28T00:32:34;19.33;;;12.82;;
48263;SDS011;34086;51.076;13.722;2023-01-28T00:33:35;19.70;;;13.38;;
48263;SDS011;34086;51.076;13.722;2023-01-28T00:34:36;19.73;;;13.18;;
48263;SDS011;34086;51.076;13.722;2023-01-28T00:35:40;19.52;;;13.48;;
48263;SDS011;34086;51.076;13.722;2023-01-28T00:36:41;19.70;;;12.82;;
48263;SDS011;34086;51.076;13.722;2023-01-28T00:37:43;20.33;;;13.32;;
48263;SDS011;34086;51.076;13.722;2023-01-28T00:38:49;19.52;;;13.52;;
48263;SDS011;34086;51.076;13.722;2023-01-28T00:39:54;19.90;;;13.43;;
48263;SDS011;34086;51.076;13.722;2023-01-28T00:40:54;19.73;;;13.98;;
48263;SDS011;34086;51.076;13.722;2023-01-28T00:41:56;20.30;;;14.15;;
48263;SDS011;34086;51.076;13.722;2023-01-28T00:42:58;19.55;;;13.43;;
48263;SDS011;34086;51.076;13.722;2023-01-28T00:43:58;20.25;;;13.77;;
48263;SDS011;34086;51.076;13.722;2023-01-28T00:45:00;20.83;;;13.43;;
48263;SDS011;34086;51.076;13.722;2023-01-28T00:46:00;20.88;;;13.13;;
48263;SDS011;34086;51.076;13.722;2023-01-28T00:47:01;20.77;;;13.13;;
48263;SDS011;34086;51.076;13.722;2023-01-28T00:48:02;18.63;;;12.63;;
48263;SDS011;34086;51.076;13.722;2023-01-28T00:49:04;22.25;;;13.93;;
48263;SDS011;34086;51.076;13.722;2023-01-28T00:50:04;22.77;;;14.65;;
48263;SDS011;34086;51.076;13.722;2023-01-28T00:51:06;20.48;;;13.27;;
48263;SDS011;34086;51.076;13.722;2023-01-28T00:52:10;20.10;;;12.93;;
48263;SDS011;34086;51.076;13.722;2023-01-28T00:53:11;20.08;;;13.02;;
48263;SDS011;34086;51.076;13.722;2023-01-28T00:54:15;19.00;;;12.63;;
48263;SDS011;34086;51.076;13.722;2023-01-28T00:55:15;20.02;;;12.82;;
48263;SDS011;34086;51.076;13.722;2023-01-28T00:56:16;20.73;;;13.02;;
48263;SDS011;34086;51.076;13.722;2023-01-28T00:57:18;21.25;;;13.50;;
48263;SDS011;34086;51.076;13.722;2023-01-28T00:58:19;20.55;;;13.50;;
48263;SDS011;34086;51.076;13.722;2023-01-28T00:59:20;20.52;;;13.38;;
48263;SDS011;34086;51.076;13.722;2023-01-28T01:00:21;23.35;;;14.07;;
48263;SDS011;34086;51.076;13.722;2023-01-28T01:01:25;20.77;;;14.13;;
48263;SDS011;34086;51.076;13.722;2023-01-28T01:02:26;21.20;;;13.88;;
48263;SDS011;34086;51.076;13.722;2023-01-28T01:03:30;20.20;;;13.27;;
48263;SDS011;34086;51.076;13.722;2023-01-28T01:04:31;21.23;;;13.80;;
48263;SDS011;34086;51.076;13.722;2023-01-28T01:05:36;20.52;;;14.07;;
48263;SDS011;34086;51.076;13.722;2023-01-28T01:06:39;20.35;;;13.82;;
48263;SDS011;34086;51.076;13.722;2023-01-28T01:07:49;21.35;;;14.10;;
48263;SDS011;34086;51.076;13.722;2023-01-28T01:08:50;21.88;;;14.55;;
48263;SDS011;34086;51.076;13.722;2023-01-28T01:09:51;22.90;;;15.00;;
48263;SDS011;34086;51.076;13.722;2023-01-28T01:10:52;19.45;;;14.20;;
48263;SDS011;34086;51.076;13.722;2023-01-28T01:11:57;23.30;;;14.77;;
48263;SDS011;34086;51.076;13.722;2023-01-28T01:12:58;23.17;;;14.43;;
48263;SDS011;34086;51.076;13.722;2023-01-28T01:13:59;23.23;;;15.43;;
48263;SDS011;34086;51.076;13.722;2023-01-28T01:15:00;22.77;;;14.15;;
48263;SDS011;34086;51.076;13.722;2023-01-28T01:16:11;22.45;;;13.85;;
48263;SDS011;34086;51.076;13.722;2023-01-28T01:17:14;23.10;;;14.82;;
48263;SDS011;34086;51.076;13.722;2023-01-28T01:18:17;22.42;;;14.85;;
48263;SDS011;34086;51.076;13.722;2023-01-28T01:19:18;23.88;;;14.35;;
48263;SDS011;34086;51.076;13.722;2023-01-28T01:20:20;22.02;;;15.02;;
48263;SDS011;34086;51.076;13.722;2023-01-28T01:21:25;23.00;;;15.52;;
48263;SDS011;34086;51.076;13.722;2023-01-28T01:22:27;22.50;;;14.73;;
48263;SDS011;34086;51.076;13.722;2023-01-28T01:23:30;22.75;;;14.77;;
48263;SDS011;34086;51.076;13.722;2023-01-28T01:24:30;26.83;;;16.15;;
48263;SDS011;34086;51.076;13.722;2023-01-28T01:25:33;26.73;;;16.38;;
48263;SDS011;34086;51.076;13.722;2023-01-28T01:26:33;25.65;;;16.15;;
48263;SDS011;34086;51.076;13.722;2023-01-28T01:27:34;23.80;;;15.90;;
48263;SDS011;34086;51.076;13.722;2023-01-28T01:28:35;26.17;;;16.98;;
48263;SDS011;34086;51.076;13.722;2023-01-28T01:29:39;27.38;;;16.50;;
48263;SDS011;34086;51.076;13.722;2023-01-28T01:30:42;29.45;;;17.33;;
48263;SDS011;34086;51.076;13.722;2023-01-28T01:31:43;27.52;;;17.40;;
48263;SDS011;34086;51.076;13.722;2023-01-28T01:32:44;25.77;;;17.17;;
48263;SDS011;34086;51.076;13.722;2023-01-28T01:33:45;25.77;;;16.33;;
48263;SDS011;34086;51.076;13.722;2023-01-28T01:34:47;25.58;;;16.30;;
48263;SDS011;34086;51.076;13.722;2023-01-28T01:35:52;26.83;;;16.85;;
48263;SDS011;34086;51.076;13.722;2023-01-28T01:36:53;27.40;;;16.75;;
48263;SDS011;34086;51.076;13.722;2023-01-28T01:37:57;24.52;;;16.40;;
48263;SDS011;34086;51.076;13.722;2023-01-28T01:38:58;24.88;;;16.52;;
48263;SDS011;34086;51.076;13.722;2023-01-28T01:40:07;25.58;;;16.05;;
48263;SDS011;34086;51.076;13.722;2023-01-28T01:41:14;26.08;;;17.15;;
48263;SDS011;34086;51.076;13.722;2023-01-28T01:42:24;29.10;;;17.73;;
48263;SDS011;34086;51.076;13.722;2023-01-28T01:43:43;25.52;;;16.02;;
48263;SDS011;34086;51.076;13.722;2023-01-28T01:44:59;24.42;;;15.82;;
48263;SDS011;34086;51.076;13.722;2023-01-28T01:46:05;24.50;;;15.82;;
48263;SDS011;34086;51.076;13.722;2023-01-28T01:47:06;22.33;;;14.82;;
48263;SDS011;34086;51.076;13.722;2023-01-28T01:48:12;21.40;;;14.18;;
48263;SDS011;34086;51.076;13.722;2023-01-28T01:49:30;25.77;;;14.38;;
48263;SDS011;34086;51.076;13.722;2023-01-28T01:51:41;25.33;;;14.68;;
48263;SDS011;34086;51.076;13.722;2023-01-28T01:52:43;23.67;;;14.40;;
48263;SDS011;34086;51.076;13.722;2023-01-28T01:53:48;24.52;;;15.05;;
48263;SDS011;34086;51.076;13.722;2023-01-28T01:54:53;25.10;;;14.63;;
48263;SDS011;34086;51.076;13.722;2023-01-28T01:56:02;23.10;;;14.07;;
48263;SDS011;34086;51.076;13.722;2023-01-28T01:57:05;21.13;;;13.65;;
48263;SDS011;34086;51.076;13.722;2023-01-28T01:58:10;23.65;;;14.05;;
48263;SDS011;34086;51.076;13.722;2023-01-28T01:59:14;21.60;;;14.02;;
48263;SDS011;34086;51.076;13.722;2023-01-28T02:00:21;21.90;;;14.43;;
48263;SDS011;34086;51.076;13.722;2023-01-28T02:01:22;24.30;;;14.55;;
48263;SDS011;34086;51.076;13.722;2023-01-28T02:02:26;20.05;;;13.70;;
48263;SDS011;34086;51.076;13.722;2023-01-28T02:03:28;22.83;;;13.93;;
48263;SDS011;34086;51.076;13.722;2023-01-28T02:05:40;25.10;;;14.20;;
48263;SDS011;34086;51.076;13.722;2023-01-28T02:06:42;22.85;;;14.75;;
48263;SDS011;34086;51.076;13.722;2023-01-28T02:07:44;23.88;;;14.55;;
48263;SDS011;34086;51.076;13.722;2023-01-28T02:08:46;24.48;;;13.88;;
48263;SDS011;34086;51.076;13.722;2023-01-28T02:09:46;23.80;;;15.00;;
48263;SDS011;34086;51.076;13.722;2023-01-28T02:10:48;27.58;;;15.35;;
48263;SDS011;34086;51.076;13.722;2023-01-28T02:12:10;23.05;;;13.88;;
48263;SDS011;34086;51.076;13.722;2023-01-28T02:13:13;25.00;;;13.90;;
48263;SDS011;34086;51.076;13.722;2023-01-28T02:14:16;21.33;;;14.20;;
48263;SDS011;34086;51.076;13.722;2023-01-28T02:15:18;21.08;;;13.65;;
48263;SDS011;34086;51.076;13.722;2023-01-28T02:16:20;22.48;;;14.63;;
48263;SDS011;34086;51.076;13.722;2023-01-28T02:17:23;22.65;;;13.90;;
48263;SDS011;34086;51.076;13.722;2023-01-28T02:18:25;24.90;;;13.88;;
48263;SDS011;34086;51.076;13.722;2023-01-28T02:19:28;19.33;;;12.85;;
48263;SDS011;34086;51.076;13.722;2023-01-28T02:20:51;21.10;;;13.75;;
48263;SDS011;34086;51.076;13.722;2023-01-28T02:22:09;26.38;;;14.15;;
48263;SDS011;34086;51.076;13.722;2023-01-28T02:26:21;25.08;;;13.48;;
48263;SDS011;34086;51.076;13.722;2023-01-28T02:27:35;20.70;;;13.25;;
48263;SDS011;34086;51.076;13.722;2023-01-28T02:29:14;20.05;;;13.60;;
48263;SDS011;34086;51.076;13.722;2023-01-28T02:30:34;20.33;;;13.00;;
48263;SDS011;34086;51.076;13.722;2023-01-28T02:31:41;21.55;;;12.50;;
48263;SDS011;34086;51.076;13.722;2023-01-28T02:32:52;21.27;;;12.77;;
48263;SDS011;34086;51.076;13.722;2023-01-28T02:34:01;23.45;;;13.98;;
48263;SDS011;34086;51.076;13.722;2023-01-28T02:35:12;23.52;;;14.27;;
48263;SDS011;34086;51.076;13.722;2023-01-28T02:38:20;23.00;;;13.82;;
48263;SDS011;34086;51.076;13.722;2023-01-28T02:39:28;22.40;;;13.90;;
48263;SDS011;34086;51.076;13.722;2023-01-28T02:40:35;22.58;;;13.60;;
48263;SDS011;34086;51.076;13.722;2023-01-28T02:42:04;22.23;;;13.95;;
48263;SDS011;34086;51.076;13.722;2023-01-28T02:43:13;23.00;;;14.90;;
48263;SDS011;34086;51.076;13.722;2023-01-28T02:44:15;23.58;;;14.27;;
48263;SDS011;34086;51.076;13.722;2023-01-28T02:45:26;22.98;;;14.43;;
48263;SDS011;34086;51.076;13.722;2023-01-28T02:46:52;25.00;;;13.70;;
48263;SDS011;34086;51.076;13.722;2023-01-28T02:48:12;22.45;;;14.23;;
48263;SDS011;34086;51.076;13.722;2023-01-28T02:49:22;22.23;;;13.80;;
48263;SDS011;34086;51.076;13.722;2023-01-28T02:50:30;23.90;;;14.05;;
48263;SDS011;34086;51.076;13.722;2023-01-28T02:53:08;23.17;;;13.82;;
48263;SDS011;34086;51.076;13.722;2023-01-28T02:54:40;24.33;;;14.00;;
48263;SDS011;34086;51.076;13.722;2023-01-28T02:57:24;22.20;;;13.50;;
48263;SDS011;34086;51.076;13.722;2023-01-28T02:59:01;21.30;;;13.05;;
48263;SDS011;34086;51.076;13.722;2023-01-28T03:00:33;20.73;;;12.32;;
48263;SDS011;34086;51.076;13.722;2023-01-28T03:02:01;21.63;;;13.15;;
48263;SDS011;34086;51.076;13.722;2023-01-28T03:03:35;19.48;;;12.90;;
48263;SDS011;34086;51.076;13.722;2023-01-28T03:05:02;19.40;;;12.77;;
48263;SDS011;34086;51.076;13.722;2023-01-28T03:06:11;22.63;;;13.15;;
48263;SDS011;34086;51.076;13.722;2023-01-28T03:07:17;21.65;;;13.57;;
48263;SDS011;34086;51.076;13.722;2023-01-28T03:08:19;24.63;;;13.68;;
48263;SDS011;34086;51.076;13.722;2023-01-28T03:09:39;24.13;;;14.23;;
48263;SDS011;34086;51.076;13.722;2023-01-28T03:10:42;22.05;;;13.85;;
48263;SDS011;34086;51.076;13.722;2023-01-28T03:11:45;23.05;;;14.38;;
48263;SDS011;34086;51.076;13.722;2023-01-28T03:13:22;24.00;;;14.15;;
48263;SDS011;34086;51.076;13.722;2023-01-28T03:14:41;23.73;;;14.20;;
48263;SDS011;34086;51.076;13.722;2023-01-28T03:16:02;25.50;;;14.98;;
48263;SDS011;34086;51.076;13.722;2023-01-28T03:17:38;23.05;;;14.93;;
48263;SDS011;34086;51.076;13.722;2023-01-28T03:19:18;25.83;;;15.05;;
48263;SDS011;34086;51.076;13.722;2023-01-28T03:21:25;23.13;;;14.95;;
48263;SDS011;34086;51.076;13.722;2023-01-28T03:22:45;25.75;;;15.48;;
48263;SDS011;34086;51.076;13.722;2023-01-28T03:24:16;26.08;;;15.48;;
48263;SDS011;34086;51.076;13.722;2023-01-28T03:25:45;27.20;;;15.95;;
48263;SDS011;34086;51.076;13.722;2023-01-28T03:28:50;24.77;;;15.50;;
48263;SDS011;34086;51.076;13.722;2023-01-28T03:30:22;26.08;;;15.45;;
48263;SDS011;34086;51.076;13.722;2023-01-28T03:31:53;24.17;;;15.57;;
48263;SDS011;34086;51.076;13.722;2023-01-28T03:33:14;24.58;;;15.18;;
48263;SDS011;34086;51.076;13.722;2023-01-28T03:34:33;22.63;;;15.43;;
48263;SDS011;34086;51.076;13.722;2023-01-28T03:35:53;24.55;;;15.65;;
48263;SDS011;34086;51.076;13.722;2023-01-28T03:37:13;25.67;;;15.60;;
48263;SDS011;34086;51.076;13.722;2023-01-28T03:38:19;23.27;;;15.00;;
48263;SDS011;34086;51.076;13.722;2023-01-28T03:39:23;22.63;;;15.40;;
48263;SDS011;34086;51.076;13.722;2023-01-28T03:40:26;24.55;;;15.43;;
48263;SDS011;34086;51.076;13.722;2023-01-28T03:41:27;21.75;;;14.88;;
48263;SDS011;34086;51.076;13.722;2023-01-28T03:42:30;20.83;;;14.25;;
48263;SDS011;34086;51.076;13.722;2023-01-28T03:43:38;24.02;;;15.90;;
48263;SDS011;34086;51.076;13.722;2023-01-28T03:44:40;22.67;;;15.32;;
48263;SDS011;34086;51.076;13.722;2023-01-28T03:45:53;24.65;;;15.82;;
48263;SDS011;34086;51.076;13.722;2023-01-28T03:46:55;22.45;;;15.68;;
48263;SDS011;34086;51.076;13.722;2023-01-28T03:47:56;24.63;;;15.55;;
48263;SDS011;34086;51.076;13.722;2023-01-28T03:48:56;25.83;;;16.00;;
48263;SDS011;34086;51.076;13.722;2023-01-28T03:49:57;26.50;;;15.73;;
48263;SDS011;34086;51.076;13.722;2023-01-28T03:51:03;24.55;;;14.70;;
48263;SDS011;34086;51.076;13.722;2023-01-28T03:52:03;23.13;;;14.88;;
48263;SDS011;34086;51.076;13.722;2023-01-28T03:53:04;22.77;;;14.45;;
48263;SDS011;34086;51.076;13.722;2023-01-28T03:54:40;22.88;;;14.60;;
48263;SDS011;34086;51.076;13.722;2023-01-28T03:55:41;23.33;;;14.43;;
48263;SDS011;34086;51.076;13.722;2023-01-28T03:56:42;20.55;;;14.18;;
48263;SDS011;34086;51.076;13.722;2023-01-28T03:57:42;20.90;;;14.05;;
48263;SDS011;34086;51.076;13.722;2023-01-28T03:58:45;22.98;;;14.70;;
48263;SDS011;34086;51.076;13.722;2023-01-28T03:59:52;22.05;;;14.55;;
48263;SDS011;34086;51.076;13.722;2023-01-28T04:00:53;21.75;;;13.82;;
48263;SDS011;34086;51.076;13.722;2023-01-28T04:01:54;22.45;;;14.50;;
48263;SDS011;34086;51.076;13.722;2023-01-28T04:02:55;23.02;;;14.30;;
48263;SDS011;34086;51.076;13.722;2023-01-28T04:03:55;23.05;;;14.65;;
48263;SDS011;34086;51.076;13.722;2023-01-28T04:05:00;23.08;;;14.48;;
48263;SDS011;34086;51.076;13.722;2023-01-28T04:06:08;22.42;;;14.65;;
48263;SDS011;34086;51.076;13.722;2023-01-28T04:07:27;22.70;;;14.75;;
48263;SDS011;34086;51.076;13.722;2023-01-28T04:08:50;20.85;;;13.82;;
48263;SDS011;34086;51.076;13.722;2023-01-28T04:10:14;21.67;;;13.77;;
48263;SDS011;34086;51.076;13.722;2023-01-28T04:11:22;25.42;;;14.05;;
48263;SDS011;34086;51.076;13.722;2023-01-28T04:12:25;21.10;;;13.07;;
48263;SDS011;34086;51.076;13.722;2023-01-28T04:13:27;21.73;;;13.38;;
48263;SDS011;34086;51.076;13.722;2023-01-28T04:14:28;19.90;;;12.82;;
48263;SDS011;34086;51.076;13.722;2023-01-28T04:15:51;21.27;;;12.23;;
48263;SDS011;34086;51.076;13.722;2023-01-28T04:16:52;17.80;;;11.82;;
48263;SDS011;34086;51.076;13.722;2023-01-28T04:17:54;18.30;;;12.25;;
48263;SDS011;34086;51.076;13.722;2023-01-28T04:19:01;17.95;;;11.63;;
48263;SDS011;34086;51.076;13.722;2023-01-28T04:20:02;18.27;;;11.40;;
48263;SDS011;34086;51.076;13.722;2023-01-28T04:21:03;18.58;;;12.50;;
48263;SDS011;34086;51.076;13.722;2023-01-28T04:22:05;18.85;;;12.75;;
48263;SDS011;34086;51.076;13.722;2023-01-28T04:23:09;21.33;;;13.05;;
48263;SDS011;34086;51.076;13.722;2023-01-28T04:24:10;21.75;;;13.88;;
48263;SDS011;34086;51.076;13.722;2023-01-28T04:25:10;19.55;;;13.00;;
48263;SDS011;34086;51.076;13.722;2023-01-28T04:26:11;20.65;;;13.73;;
48263;SDS011;34086;51.076;13.722;2023-01-28T04:27:11;19.42;;;12.73;;
48263;SDS011;34086;51.076;13.722;2023-01-28T04:28:12;18.65;;;12.63;;
48263;SDS011;34086;51.076;13.722;2023-01-28T04:29:13;19.15;;;12.40;;
48263;SDS011;34086;51.076;13.722;2023-01-28T04:30:14;15.93;;;11.40;;
48263;SDS011;34086;51.076;13.722;2023-01-28T04:31:21;19.02;;;11.68;;
48263;SDS011;34086;51.076;13.722;2023-01-28T04:32:41;17.60;;;11.52;;
48263;SDS011;34086;51.076;13.722;2023-01-28T04:34:00;16.10;;;10.88;;
48263;SDS011;34086;51.076;13.722;2023-01-28T04:35:13;17.17;;;11.68;;
48263;SDS011;34086;51.076;13.722;2023-01-28T04:36:32;15.43;;;11.02;;
48263;SDS011;34086;51.076;13.722;2023-01-28T04:37:51;16.92;;;10.60;;
48263;SDS011;34086;51.076;13.722;2023-01-28T04:39:04;15.95;;;10.65;;
48263;SDS011;34086;51.076;13.722;2023-01-28T04:40:11;14.02;;;9.73;;
48263;SDS011;34086;51.076;13.722;2023-01-28T04:41:35;18.55;;;11.00;;
48263;SDS011;34086;51.076;13.722;2023-01-28T04:42:41;16.20;;;10.40;;
48263;SDS011;34086;51.076;13.722;2023-01-28T04:44:03;16.67;;;11.05;;
48263;SDS011;34086;51.076;13.722;2023-01-28T04:45:23;19.05;;;10.90;;
48263;SDS011;34086;51.076;13.722;2023-01-28T04:46:59;16.08;;;9.98;;
48263;SDS011;34086;51.076;13.722;2023-01-28T04:48:29;15.43;;;10.13;;
48263;SDS011;34086;51.076;13.722;2023-01-28T04:49:49;15.00;;;10.55;;
48263;SDS011;34086;51.076;13.722;2023-01-28T04:51:00;15.95;;;10.55;;
48263;SDS011;34086;51.076;13.722;2023-01-28T04:52:11;14.65;;;10.60;;
48263;SDS011;34086;51.076;13.722;2023-01-28T04:53:30;15.35;;;10.25;;
48263;SDS011;34086;51.076;13.722;2023-01-28T04:54:32;15.95;;;9.98;;
48263;SDS011;34086;51.076;13.722;2023-01-28T04:55:36;14.95;;;10.43;;
48263;SDS011;34086;51.076;13.722;2023-01-28T04:56:36;14.05;;;9.90;;
48263;SDS011;34086;51.076;13.722;2023-01-28T04:57:37;13.63;;;10.05;;
48263;SDS011;34086;51.076;13.722;2023-01-28T04:58:40;14.70;;;9.85;;
48263;SDS011;34086;51.076;13.722;2023-01-28T04:59:47;16.40;;;10.00;;
48263;SDS011;34086;51.076;13.722;2023-01-28T05:00:53;16.25;;;10.77;;
48263;SDS011;34086;51.076;13.722;2023-01-28T05:01:59;15.40;;;10.20;;
48263;SDS011;34086;51.076;13.722;2023-01-28T05:02:59;15.07;;;10.35;;
48263;SDS011;34086;51.076;13.722;2023-01-28T05:04:00;14.30;;;10.00;;
48263;SDS011;34086;51.076;13.722;2023-01-28T05:05:05;15.70;;;9.85;;
48263;SDS011;34086;51.076;13.722;2023-01-28T05:06:29;14.30;;;9.15;;
48263;SDS011;34086;51.076;13.722;2023-01-28T05:07:36;14.60;;;9.25;;
48263;SDS011;34086;51.076;13.722;2023-01-28T05:08:37;14.35;;;9.45;;
48263;SDS011;34086;51.076;13.722;2023-01-28T05:09:38;13.35;;;9.57;;
48263;SDS011;34086;51.076;13.722;2023-01-28T05:10:39;15.05;;;9.73;;
48263;SDS011;34086;51.076;13.722;2023-01-28T05:11:39;13.20;;;9.15;;
48263;SDS011;34086;51.076;13.722;2023-01-28T05:12:42;13.23;;;9.32;;
48263;SDS011;34086;51.076;13.722;2023-01-28T05:13:45;15.23;;;9.65;;
48263;SDS011;34086;51.076;13.722;2023-01-28T05:14:47;13.57;;;9.38;;
48263;SDS011;34086;51.076;13.722;2023-01-28T05:15:52;15.93;;;10.05;;
48263;SDS011;34086;51.076;13.722;2023-01-28T05:16:53;14.45;;;9.65;;
48263;SDS011;34086;51.076;13.722;2023-01-28T05:17:54;15.88;;;9.73;;
48263;SDS011;34086;51.076;13.722;2023-01-28T05:18:56;16.08;;;10.48;;
48263;SDS011;34086;51.076;13.722;2023-01-28T05:19:57;14.80;;;10.35;;
48263;SDS011;34086;51.076;13.722;2023-01-28T05:21:01;14.60;;;10.10;;
48263;SDS011;34086;51.076;13.722;2023-01-28T05:22:03;15.18;;;10.50;;
48263;SDS011;34086;51.076;13.722;2023-01-28T05:23:13;16.45;;;10.63;;
48263;SDS011;34086;51.076;13.722;2023-01-28T05:24:27;15.95;;;10.30;;
48263;SDS011;34086;51.076;13.722;2023-01-28T05:25:27;15.25;;;10.07;;
48263;SDS011;34086;51.076;13.722;2023-01-28T05:26:28;15.55;;;10.48;;
48263;SDS011;34086;51.076;13.722;2023-01-28T05:27:29;17.02;;;10.38;;
48263;SDS011;34086;51.076;13.722;2023-01-28T05:28:30;16.98;;;10.15;;
48263;SDS011;34086;51.076;13.722;2023-01-28T05:29:31;14.93;;;10.10;;
48263;SDS011;34086;51.076;13.722;2023-01-28T05:30:33;15.00;;;10.13;;
48263;SDS011;34086;51.076;13.722;2023-01-28T05:31:33;14.70;;;9.52;;
48263;SDS011;34086;51.076;13.722;2023-01-28T05:32:34;13.10;;;9.25;;
48263;SDS011;34086;51.076;13.722;2023-01-28T05:33:35;14.57;;;10.40;;
48263;SDS011;34086;51.076;13.722;2023-01-28T05:34:38;14.95;;;10.80;;
48263;SDS011;34086;51.076;13.722;2023-01-28T05:35:45;15.85;;;10.35;;
48263;SDS011;34086;51.076;13.722;2023-01-28T05:36:46;14.73;;;10.73;;
48263;SDS011;34086;51.076;13.722;2023-01-28T05:38:01;15.82;;;10.43;;
48263;SDS011;34086;51.076;13.722;2023-01-28T05:39:02;15.52;;;9.95;;
48263;SDS011;34086;51.076;13.722;2023-01-28T05:40:03;15.10;;;10.27;;
48263;SDS011;34086;51.076;13.722;2023-01-28T05:41:04;15.50;;;10.23;;
48263;SDS011;34086;51.076;13.722;2023-01-28T05:42:05;15.32;;;10.30;;
48263;SDS011;34086;51.076;13.722;2023-01-28T05:43:08;15.52;;;10.15;;
48263;SDS011;34086;51.076;13.722;2023-01-28T05:44:12;15.13;;;10.20;;
48263;SDS011;34086;51.076;13.722;2023-01-28T05:45:42;13.82;;;10.23;;
48263;SDS011;34086;51.076;13.722;2023-01-28T05:46:55;15.57;;;10.57;;
48263;SDS011;34086;51.076;13.722;2023-01-28T05:48:17;16.10;;;10.25;;
48263;SDS011;34086;51.076;13.722;2023-01-28T05:49:38;13.55;;;9.40;;
48263;SDS011;34086;51.076;13.722;2023-01-28T05:50:57;14.35;;;10.23;;
48263;SDS011;34086;51.076;13.722;2023-01-28T05:52:06;15.18;;;10.18;;
48263;SDS011;34086;51.076;13.722;2023-01-28T05:53:07;15.13;;;9.88;;
48263;SDS011;34086;51.076;13.722;2023-01-28T05:54:09;14.43;;;9.93;;
48263;SDS011;34086;51.076;13.722;2023-01-28T05:55:10;16.15;;;9.95;;
48263;SDS011;34086;51.076;13.722;2023-01-28T05:56:11;13.73;;;10.00;;
48263;SDS011;34086;51.076;13.722;2023-01-28T05:57:14;14.23;;;9.80;;
48263;SDS011;34086;51.076;13.722;2023-01-28T05:58:14;14.65;;;9.40;;
48263;SDS011;34086;51.076;13.722;2023-01-28T05:59:15;15.68;;;9.73;;
48263;SDS011;34086;51.076;13.722;2023-01-28T06:00:17;14.30;;;9.38;;
48263;SDS011;34086;51.076;13.722;2023-01-28T06:01:19;15.35;;;10.45;;
48263;SDS011;34086;51.076;13.722;2023-01-28T06:02:24;14.63;;;9.85;;
48263;SDS011;34086;51.076;13.722;2023-01-28T06:03:28;15.75;;;10.05;;
48263;SDS011;34086;51.076;13.722;2023-01-28T06:04:29;13.68;;;9.55;;
48263;SDS011;34086;51.076;13.722;2023-01-28T06:05:31;15.85;;;9.98;;
48263;SDS011;34086;51.076;13.722;2023-01-28T06:06:34;14.85;;;9.98;;
48263;SDS011;34086;51.076;13.722;2023-01-28T06:07:37;15.27;;;9.63;;
48263;SDS011;34086;51.076;13.722;2023-01-28T06:08:40;15.35;;;10.10;;
48263;SDS011;34086;51.076;13.722;2023-01-28T06:09:40;15.38;;;10.15;;
48263;SDS011;34086;51.076;13.722;2023-01-28T06:10:42;16.67;;;10.43;;
48263;SDS011;34086;51.076;13.722;2023-01-28T06:11:43;13.93;;;10.05;;
48263;SDS011;34086;51.076;13.722;2023-01-28T06:12:46;18.95;;;11.18;;
48263;SDS011;34086;51.076;13.722;2023-01-28T06:14:05;16.98;;;11.52;;
48263;SDS011;34086;51.076;13.722;2023-01-28T06:15:38;18.88;;;12.20;;
48263;SDS011;34086;51.076;13.722;2023-01-28T06:16:56;16.42;;;11.30;;
48263;SDS011;34086;51.076;13.722;2023-01-28T06:18:08;20.27;;;12.43;;
48263;SDS011;34086;51.076;13.722;2023-01-28T06:19:09;15.40;;;12.50;;
48263;SDS011;34086;51.076;13.722;2023-01-28T06:20:10;16.25;;;12.25;;
48263;SDS011;34086;51.076;13.722;2023-01-28T06:21:12;17.15;;;12.23;;
48263;SDS011;34086;51.076;13.722;2023-01-28T06:22:13;16.85;;;12.73;;
48263;SDS011;34086;51.076;13.722;2023-01-28T06:23:14;19.45;;;12.68;;
48263;SDS011;34086;51.076;13.722;2023-01-28T06:24:14;18.08;;;13.45;;
48263;SDS011;34086;51.076;13.722;2023-01-28T06:25:15;20.23;;;13.27;;
48263;SDS011;34086;51.076;13.722;2023-01-28T06:26:15;20.85;;;13.50;;
48263;SDS011;34086;51.076;13.722;2023-01-28T06:27:19;19.77;;;12.95;;
48263;SDS011;34086;51.076;13.722;2023-01-28T06:28:20;20.10;;;12.90;;
48263;SDS011;34086;51.076;13.722;2023-01-28T06:29:21;16.98;;;12.23;;
48263;SDS011;34086;51.076;13.722;2023-01-28T06:30:22;19.13;;;12.52;;
48263;SDS011;34086;51.076;13.722;2023-01-28T06:31:22;19.65;;;13.07;;
48263;SDS011;34086;51.076;13.722;2023-01-28T06:32:23;19.50;;;13.30;;
48263;SDS011;34086;51.076;13.722;2023-01-28T06:33:23;16.52;;;11.85;;
48263;SDS011;34086;51.076;13.722;2023-01-28T06:34:24;16.50;;;10.82;;
48263;SDS011;34086;51.076;13.722;2023-01-28T06:35:25;16.70;;;8.90;;
48263;SDS011;34086;51.076;13.722;2023-01-28T06:36:25;13.43;;;8.40;;
48263;SDS011;34086;51.076;13.722;2023-01-28T06:37:26;14.15;;;9.40;;
48263;SDS011;34086;51.076;13.722;2023-01-28T06:38:27;14.80;;;8.98;;